Hudson, New Hampshire
Current Conditions -  °F | °C
As of 10:51 AM on Monday 24 Nov 2014 (Local Time) from KASH Reporting Station
Haze Haze  
Wind Chill: 61°   Ceiling: 700
Heat Index: 61°   Visibility: 4mi
Dew Point: 60°   Wind: 8mph
Humidity: 96%   Direction: 160°SSE
Pressure: 29.66"   Gusts: NA
Location:  42.76°N, 71.44°W
Report Text: KASH 241551Z 16007KT 130V190 4SM BR BKN007 BKN010 OVC015 16/16 A2966 RMK AO2 T01610155 RAE42 P0000 SLP291
Loading
Personal Weather Stations






























Interactive Weather Map New forecast layout! Learn more

10-Day Weather Forecast

Advertisements
Track Severe Weather on mobile